GMMN

Mohammed V International Airport

Casablanca, Morocco
METAR GMMN 172130Z 21005KT 170V240 9999 -RA SCT016 BKN100 16/15 Q1008 NOSIG
Observed Flight Rules
Nov-17 @ 21:30 UTC (43 minutes ago) Visual Flight Rules
Wind Visibility Clouds Conditions
210° at 5 knots 10,000+ meters
  • Scattered at 1,600' AGL
  • Broken at 10,000' AGL
  • Light Rain
Temperatures Readings
Current 16°C / 61°F
Dewpoint 15°C / 59°F
Humidity 94%
Altimeter 29.76" Hg
Pressure 1008 hPa
Elevation 206
METAR GMMN 172130Z 21005KT 170V240 9999 -RA SCT016 BKN100 16/15 Q1008 NOSIG
Observed Flight Rules
Nov-17 @ 21:30 UTC
(43 minutes ago)
VFR
Wind Visibility
210° at 5 knots 10,000+ meters
Clouds
  • Scattered at 1,600' AGL
  • Broken at 10,000' AGL
Conditions
  • Light Rain
Temperature Dewpoint
16°C / 61°F 15°C / 59°F
Humidity Altimeter Pressure
94% 29.76" Hg 1008 hPa